sensor_id;sensor_type;location;lat;lon;timestamp;P1;durP1;ratioP1;P2;durP2;ratioP2
14294;SDS011;7231;59.370;18.016;2024-02-26T00:00:53;25.30;;;15.13;;
14294;SDS011;7231;59.370;18.016;2024-02-26T00:03:21;24.53;;;14.80;;
14294;SDS011;7231;59.370;18.016;2024-02-26T00:05:50;25.20;;;14.50;;
14294;SDS011;7231;59.370;18.016;2024-02-26T00:08:18;27.43;;;15.00;;
14294;SDS011;7231;59.370;18.016;2024-02-26T00:10:46;24.90;;;15.20;;
14294;SDS011;7231;59.370;18.016;2024-02-26T00:13:16;25.40;;;15.37;;
14294;SDS011;7231;59.370;18.016;2024-02-26T00:15:44;26.33;;;14.83;;
14294;SDS011;7231;59.370;18.016;2024-02-26T00:18:12;24.43;;;14.30;;
14294;SDS011;7231;59.370;18.016;2024-02-26T00:20:40;26.07;;;14.87;;
14294;SDS011;7231;59.370;18.016;2024-02-26T00:23:09;26.40;;;14.80;;
14294;SDS011;7231;59.370;18.016;2024-02-26T00:25:37;30.50;;;15.20;;
14294;SDS011;7231;59.370;18.016;2024-02-26T00:28:05;31.23;;;15.13;;
14294;SDS011;7231;59.370;18.016;2024-02-26T00:30:35;30.40;;;15.80;;
14294;SDS011;7231;59.370;18.016;2024-02-26T00:33:03;32.10;;;16.50;;
14294;SDS011;7231;59.370;18.016;2024-02-26T00:35:32;30.60;;;16.93;;
14294;SDS011;7231;59.370;18.016;2024-02-26T00:38:00;28.40;;;15.67;;
14294;SDS011;7231;59.370;18.016;2024-02-26T00:40:29;28.07;;;15.20;;
14294;SDS011;7231;59.370;18.016;2024-02-26T00:42:57;27.93;;;15.07;;
14294;SDS011;7231;59.370;18.016;2024-02-26T00:45:26;24.10;;;14.00;;
14294;SDS011;7231;59.370;18.016;2024-02-26T00:47:55;26.20;;;13.83;;
14294;SDS011;7231;59.370;18.016;2024-02-26T00:50:23;22.97;;;12.90;;
14294;SDS011;7231;59.370;18.016;2024-02-26T00:52:51;27.73;;;13.07;;
14294;SDS011;7231;59.370;18.016;2024-02-26T00:55:20;22.83;;;13.60;;
14294;SDS011;7231;59.370;18.016;2024-02-26T00:57:48;25.23;;;12.43;;
14294;SDS011;7231;59.370;18.016;2024-02-26T01:00:16;22.50;;;13.17;;
14294;SDS011;7231;59.370;18.016;2024-02-26T01:02:45;23.33;;;12.07;;
14294;SDS011;7231;59.370;18.016;2024-02-26T01:05:15;25.03;;;12.63;;
14294;SDS011;7231;59.370;18.016;2024-02-26T01:07:44;23.43;;;12.97;;
14294;SDS011;7231;59.370;18.016;2024-02-26T01:10:12;25.87;;;13.40;;
14294;SDS011;7231;59.370;18.016;2024-02-26T01:12:40;20.83;;;11.77;;
14294;SDS011;7231;59.370;18.016;2024-02-26T01:15:09;24.87;;;12.70;;
14294;SDS011;7231;59.370;18.016;2024-02-26T01:17:38;27.53;;;14.33;;
14294;SDS011;7231;59.370;18.016;2024-02-26T01:20:07;29.37;;;14.77;;
14294;SDS011;7231;59.370;18.016;2024-02-26T01:22:37;26.37;;;14.10;;
14294;SDS011;7231;59.370;18.016;2024-02-26T01:25:07;31.63;;;13.87;;
14294;SDS011;7231;59.370;18.016;2024-02-26T01:27:36;27.50;;;13.80;;
14294;SDS011;7231;59.370;18.016;2024-02-26T01:30:04;28.83;;;13.63;;
14294;SDS011;7231;59.370;18.016;2024-02-26T01:32:33;27.33;;;13.37;;
14294;SDS011;7231;59.370;18.016;2024-02-26T01:35:02;25.60;;;13.50;;
14294;SDS011;7231;59.370;18.016;2024-02-26T01:37:31;21.40;;;12.50;;
14294;SDS011;7231;59.370;18.016;2024-02-26T01:40:01;20.10;;;11.83;;
14294;SDS011;7231;59.370;18.016;2024-02-26T01:42:30;20.60;;;11.80;;
14294;SDS011;7231;59.370;18.016;2024-02-26T01:44:58;19.13;;;11.47;;
14294;SDS011;7231;59.370;18.016;2024-02-26T01:47:27;26.13;;;12.27;;
14294;SDS011;7231;59.370;18.016;2024-02-26T01:49:56;24.00;;;12.70;;
14294;SDS011;7231;59.370;18.016;2024-02-26T01:52:25;22.40;;;11.90;;
14294;SDS011;7231;59.370;18.016;2024-02-26T01:54:54;27.80;;;12.33;;
14294;SDS011;7231;59.370;18.016;2024-02-26T01:57:23;21.43;;;11.10;;
14294;SDS011;7231;59.370;18.016;2024-02-26T01:59:51;21.93;;;11.77;;
14294;SDS011;7231;59.370;18.016;2024-02-26T02:02:19;20.87;;;11.30;;
14294;SDS011;7231;59.370;18.016;2024-02-26T02:04:48;18.97;;;11.40;;
14294;SDS011;7231;59.370;18.016;2024-02-26T02:07:16;18.73;;;10.53;;
14294;SDS011;7231;59.370;18.016;2024-02-26T02:09:45;16.37;;;9.23;;
14294;SDS011;7231;59.370;18.016;2024-02-26T02:12:14;16.37;;;9.60;;
14294;SDS011;7231;59.370;18.016;2024-02-26T02:14:43;21.13;;;10.40;;
14294;SDS011;7231;59.370;18.016;2024-02-26T02:17:12;18.40;;;10.27;;
14294;SDS011;7231;59.370;18.016;2024-02-26T02:19:40;14.90;;;9.13;;
14294;SDS011;7231;59.370;18.016;2024-02-26T02:22:09;19.87;;;10.50;;
14294;SDS011;7231;59.370;18.016;2024-02-26T02:24:38;16.33;;;9.10;;
14294;SDS011;7231;59.370;18.016;2024-02-26T02:27:06;20.03;;;9.80;;
14294;SDS011;7231;59.370;18.016;2024-02-26T02:29:34;17.77;;;10.37;;
14294;SDS011;7231;59.370;18.016;2024-02-26T02:32:02;15.77;;;9.57;;
14294;SDS011;7231;59.370;18.016;2024-02-26T02:34:32;15.57;;;9.53;;
14294;SDS011;7231;59.370;18.016;2024-02-26T02:37:01;14.90;;;9.17;;
14294;SDS011;7231;59.370;18.016;2024-02-26T02:39:31;16.90;;;9.73;;
14294;SDS011;7231;59.370;18.016;2024-02-26T02:41:59;16.93;;;10.00;;
14294;SDS011;7231;59.370;18.016;2024-02-26T02:44:27;14.23;;;9.50;;
14294;SDS011;7231;59.370;18.016;2024-02-26T02:46:55;16.30;;;9.93;;
14294;SDS011;7231;59.370;18.016;2024-02-26T02:49:23;14.07;;;9.17;;
14294;SDS011;7231;59.370;18.016;2024-02-26T02:51:51;13.80;;;9.10;;
14294;SDS011;7231;59.370;18.016;2024-02-26T02:54:20;13.23;;;8.90;;
14294;SDS011;7231;59.370;18.016;2024-02-26T02:56:50;17.23;;;10.47;;
14294;SDS011;7231;59.370;18.016;2024-02-26T02:59:18;17.00;;;9.77;;
14294;SDS011;7231;59.370;18.016;2024-02-26T03:01:46;13.80;;;9.23;;
14294;SDS011;7231;59.370;18.016;2024-02-26T03:04:14;14.77;;;10.27;;
14294;SDS011;7231;59.370;18.016;2024-02-26T03:06:42;13.60;;;9.07;;
14294;SDS011;7231;59.370;18.016;2024-02-26T03:09:11;19.13;;;9.73;;
14294;SDS011;7231;59.370;18.016;2024-02-26T03:11:39;15.23;;;9.47;;
14294;SDS011;7231;59.370;18.016;2024-02-26T03:14:09;15.60;;;9.53;;
14294;SDS011;7231;59.370;18.016;2024-02-26T03:16:37;18.20;;;10.87;;
14294;SDS011;7231;59.370;18.016;2024-02-26T03:19:05;14.87;;;9.90;;
14294;SDS011;7231;59.370;18.016;2024-02-26T03:21:34;16.77;;;9.97;;
14294;SDS011;7231;59.370;18.016;2024-02-26T03:24:02;16.40;;;9.67;;
14294;SDS011;7231;59.370;18.016;2024-02-26T03:26:30;16.43;;;10.30;;
14294;SDS011;7231;59.370;18.016;2024-02-26T03:28:58;19.33;;;10.67;;
14294;SDS011;7231;59.370;18.016;2024-02-26T03:31:29;18.47;;;10.13;;
14294;SDS011;7231;59.370;18.016;2024-02-26T03:33:57;16.33;;;10.17;;
14294;SDS011;7231;59.370;18.016;2024-02-26T03:36:26;17.43;;;10.03;;
14294;SDS011;7231;59.370;18.016;2024-02-26T03:38:54;15.57;;;10.27;;
14294;SDS011;7231;59.370;18.016;2024-02-26T03:41:22;18.07;;;10.90;;
14294;SDS011;7231;59.370;18.016;2024-02-26T03:43:50;17.70;;;10.77;;
14294;SDS011;7231;59.370;18.016;2024-02-26T03:46:18;15.80;;;10.10;;
14294;SDS011;7231;59.370;18.016;2024-02-26T03:48:48;16.43;;;9.53;;
14294;SDS011;7231;59.370;18.016;2024-02-26T03:51:16;16.03;;;10.27;;
14294;SDS011;7231;59.370;18.016;2024-02-26T03:53:45;17.33;;;10.60;;
14294;SDS011;7231;59.370;18.016;2024-02-26T03:56:13;15.00;;;10.30;;
14294;SDS011;7231;59.370;18.016;2024-02-26T03:58:42;18.00;;;10.83;;
14294;SDS011;7231;59.370;18.016;2024-02-26T04:01:10;15.33;;;11.17;;
14294;SDS011;7231;59.370;18.016;2024-02-26T04:03:38;15.23;;;10.30;;
14294;SDS011;7231;59.370;18.016;2024-02-26T04:06:09;15.67;;;10.93;;
14294;SDS011;7231;59.370;18.016;2024-02-26T04:08:38;16.10;;;10.40;;
14294;SDS011;7231;59.370;18.016;2024-02-26T04:11:06;18.27;;;11.63;;
14294;SDS011;7231;59.370;18.016;2024-02-26T04:13:34;17.57;;;11.60;;
14294;SDS011;7231;59.370;18.016;2024-02-26T04:16:04;16.57;;;10.80;;
14294;SDS011;7231;59.370;18.016;2024-02-26T04:18:33;18.23;;;11.57;;
14294;SDS011;7231;59.370;18.016;2024-02-26T04:21:01;17.47;;;10.53;;
14294;SDS011;7231;59.370;18.016;2024-02-26T04:23:35;18.70;;;12.17;;
14294;SDS011;7231;59.370;18.016;2024-02-26T04:26:04;19.50;;;12.27;;
14294;SDS011;7231;59.370;18.016;2024-02-26T04:28:32;20.33;;;13.27;;
14294;SDS011;7231;59.370;18.016;2024-02-26T04:31:00;19.17;;;12.23;;
14294;SDS011;7231;59.370;18.016;2024-02-26T04:33:28;19.20;;;12.63;;
14294;SDS011;7231;59.370;18.016;2024-02-26T04:35:56;24.50;;;13.43;;
14294;SDS011;7231;59.370;18.016;2024-02-26T04:38:25;26.33;;;12.67;;
14294;SDS011;7231;59.370;18.016;2024-02-26T04:40:54;24.27;;;11.83;;
14294;SDS011;7231;59.370;18.016;2024-02-26T04:43:23;22.20;;;12.87;;
14294;SDS011;7231;59.370;18.016;2024-02-26T04:45:51;25.07;;;13.03;;
14294;SDS011;7231;59.370;18.016;2024-02-26T04:48:19;35.23;;;15.03;;
14294;SDS011;7231;59.370;18.016;2024-02-26T04:50:47;32.07;;;13.67;;
14294;SDS011;7231;59.370;18.016;2024-02-26T04:53:15;38.10;;;14.37;;
14294;SDS011;7231;59.370;18.016;2024-02-26T04:55:44;34.27;;;15.00;;
14294;SDS011;7231;59.370;18.016;2024-02-26T04:58:13;40.53;;;14.53;;
14294;SDS011;7231;59.370;18.016;2024-02-26T05:00:41;32.37;;;15.60;;
14294;SDS011;7231;59.370;18.016;2024-02-26T05:03:09;38.23;;;15.23;;
14294;SDS011;7231;59.370;18.016;2024-02-26T05:05:39;25.90;;;15.00;;
14294;SDS011;7231;59.370;18.016;2024-02-26T05:08:08;27.13;;;15.03;;
14294;SDS011;7231;59.370;18.016;2024-02-26T05:10:36;27.90;;;15.87;;
14294;SDS011;7231;59.370;18.016;2024-02-26T05:13:07;33.40;;;15.50;;
14294;SDS011;7231;59.370;18.016;2024-02-26T05:15:37;31.83;;;14.53;;
14294;SDS011;7231;59.370;18.016;2024-02-26T05:18:05;35.00;;;17.10;;
14294;SDS011;7231;59.370;18.016;2024-02-26T05:20:34;33.50;;;16.77;;
14294;SDS011;7231;59.370;18.016;2024-02-26T05:23:04;34.07;;;17.07;;
14294;SDS011;7231;59.370;18.016;2024-02-26T05:25:33;32.73;;;16.33;;
14294;SDS011;7231;59.370;18.016;2024-02-26T05:28:01;35.37;;;16.27;;
14294;SDS011;7231;59.370;18.016;2024-02-26T05:30:29;30.13;;;16.17;;
14294;SDS011;7231;59.370;18.016;2024-02-26T05:32:59;29.87;;;15.67;;
14294;SDS011;7231;59.370;18.016;2024-02-26T05:35:27;35.10;;;16.10;;
14294;SDS011;7231;59.370;18.016;2024-02-26T05:37:55;27.90;;;15.93;;
14294;SDS011;7231;59.370;18.016;2024-02-26T05:40:23;26.73;;;15.13;;
14294;SDS011;7231;59.370;18.016;2024-02-26T05:42:51;28.10;;;16.00;;
14294;SDS011;7231;59.370;18.016;2024-02-26T05:45:20;28.73;;;16.43;;
14294;SDS011;7231;59.370;18.016;2024-02-26T05:47:48;29.47;;;15.77;;
14294;SDS011;7231;59.370;18.016;2024-02-26T05:50:18;26.67;;;14.60;;
14294;SDS011;7231;59.370;18.016;2024-02-26T05:52:46;23.67;;;14.57;;
14294;SDS011;7231;59.370;18.016;2024-02-26T05:55:15;25.33;;;14.90;;
14294;SDS011;7231;59.370;18.016;2024-02-26T05:57:43;23.67;;;14.17;;
14294;SDS011;7231;59.370;18.016;2024-02-26T06:00:12;28.13;;;15.80;;
14294;SDS011;7231;59.370;18.016;2024-02-26T06:02:41;29.13;;;15.87;;
14294;SDS011;7231;59.370;18.016;2024-02-26T06:05:10;26.90;;;14.73;;
14294;SDS011;7231;59.370;18.016;2024-02-26T06:07:39;28.70;;;16.63;;
14294;SDS011;7231;59.370;18.016;2024-02-26T06:10:07;27.10;;;15.53;;
14294;SDS011;7231;59.370;18.016;2024-02-26T06:12:36;31.73;;;16.33;;
14294;SDS011;7231;59.370;18.016;2024-02-26T06:15:04;26.80;;;15.77;;
14294;SDS011;7231;59.370;18.016;2024-02-26T06:17:33;28.27;;;16.20;;
14294;SDS011;7231;59.370;18.016;2024-02-26T06:20:01;24.83;;;15.23;;
14294;SDS011;7231;59.370;18.016;2024-02-26T06:22:31;30.97;;;17.10;;
14294;SDS011;7231;59.370;18.016;2024-02-26T06:25:00;29.20;;;16.30;;
14294;SDS011;7231;59.370;18.016;2024-02-26T06:27:28;25.53;;;15.63;;
14294;SDS011;7231;59.370;18.016;2024-02-26T06:29:56;25.10;;;14.97;;
14294;SDS011;7231;59.370;18.016;2024-02-26T06:32:25;23.07;;;14.70;;
14294;SDS011;7231;59.370;18.016;2024-02-26T06:34:54;26.70;;;16.00;;
14294;SDS011;7231;59.370;18.016;2024-02-26T06:37:22;26.80;;;14.43;;
14294;SDS011;7231;59.370;18.016;2024-02-26T06:39:51;25.37;;;14.73;;
14294;SDS011;7231;59.370;18.016;2024-02-26T06:42:21;26.33;;;15.27;;
14294;SDS011;7231;59.370;18.016;2024-02-26T06:44:49;23.33;;;14.90;;
14294;SDS011;7231;59.370;18.016;2024-02-26T06:47:17;24.33;;;14.93;;
14294;SDS011;7231;59.370;18.016;2024-02-26T06:49:46;22.97;;;14.30;;
14294;SDS011;7231;59.370;18.016;2024-02-26T06:52:14;22.77;;;14.53;;
14294;SDS011;7231;59.370;18.016;2024-02-26T06:54:42;26.53;;;14.70;;
14294;SDS011;7231;59.370;18.016;2024-02-26T06:57:12;21.60;;;14.03;;
14294;SDS011;7231;59.370;18.016;2024-02-26T06:59:42;21.40;;;14.50;;
14294;SDS011;7231;59.370;18.016;2024-02-26T07:02:12;26.33;;;16.10;;
14294;SDS011;7231;59.370;18.016;2024-02-26T07:04:41;22.30;;;15.60;;
14294;SDS011;7231;59.370;18.016;2024-02-26T07:07:09;25.50;;;16.47;;
14294;SDS011;7231;59.370;18.016;2024-02-26T07:09:41;23.47;;;14.73;;
14294;SDS011;7231;59.370;18.016;2024-02-26T07:12:10;21.60;;;14.03;;
14294;SDS011;7231;59.370;18.016;2024-02-26T07:14:38;21.37;;;14.73;;
14294;SDS011;7231;59.370;18.016;2024-02-26T07:17:07;24.33;;;14.30;;
14294;SDS011;7231;59.370;18.016;2024-02-26T07:19:35;20.40;;;14.30;;
14294;SDS011;7231;59.370;18.016;2024-02-26T07:22:04;21.23;;;14.50;;
14294;SDS011;7231;59.370;18.016;2024-02-26T07:24:32;18.73;;;13.63;;
14294;SDS011;7231;59.370;18.016;2024-02-26T07:27:00;20.77;;;14.00;;
14294;SDS011;7231;59.370;18.016;2024-02-26T07:29:28;21.43;;;14.30;;
14294;SDS011;7231;59.370;18.016;2024-02-26T07:31:56;21.53;;;15.07;;
14294;SDS011;7231;59.370;18.016;2024-02-26T07:34:27;22.83;;;14.43;;
14294;SDS011;7231;59.370;18.016;2024-02-26T07:36:56;21.27;;;14.57;;
14294;SDS011;7231;59.370;18.016;2024-02-26T07:39:24;19.27;;;13.20;;
14294;SDS011;7231;59.370;18.016;2024-02-26T07:41:52;17.07;;;13.23;;
14294;SDS011;7231;59.370;18.016;2024-02-26T07:44:21;17.43;;;13.03;;
14294;SDS011;7231;59.370;18.016;2024-02-26T07:46:49;19.53;;;11.93;;
14294;SDS011;7231;59.370;18.016;2024-02-26T07:49:17;20.05;;;12.48;;
14294;SDS011;7231;59.370;18.016;2024-02-26T07:51:47;18.60;;;12.60;;
14294;SDS011;7231;59.370;18.016;2024-02-26T07:54:15;17.73;;;11.90;;
14294;SDS011;7231;59.370;18.016;2024-02-26T07:56:46;18.38;;;11.98;;
14294;SDS011;7231;59.370;18.016;2024-02-26T07:59:14;15.45;;;11.30;;
14294;SDS011;7231;59.370;18.016;2024-02-26T08:01:42;16.17;;;12.20;;
14294;SDS011;7231;59.370;18.016;2024-02-26T08:04:16;15.60;;;11.65;;
14294;SDS011;7231;59.370;18.016;2024-02-26T08:06:44;15.52;;;12.18;;
14294;SDS011;7231;59.370;18.016;2024-02-26T08:09:14;16.63;;;11.73;;
14294;SDS011;7231;59.370;18.016;2024-02-26T08:11:42;15.98;;;11.30;;
14294;SDS011;7231;59.370;18.016;2024-02-26T08:14:10;17.23;;;11.48;;
14294;SDS011;7231;59.370;18.016;2024-02-26T08:16:39;16.25;;;11.93;;
14294;SDS011;7231;59.370;18.016;2024-02-26T08:19:07;16.80;;;11.40;;
14294;SDS011;7231;59.370;18.016;2024-02-26T08:21:37;17.08;;;11.18;;
14294;SDS011;7231;59.370;18.016;2024-02-26T08:24:07;17.40;;;11.87;;
14294;SDS011;7231;59.370;18.016;2024-02-26T08:26:37;17.70;;;11.80;;
14294;SDS011;7231;59.370;18.016;2024-02-26T08:29:05;16.25;;;11.25;;
14294;SDS011;7231;59.370;18.016;2024-02-26T08:31:33;14.05;;;10.73;;
14294;SDS011;7231;59.370;18.016;2024-02-26T08:34:04;16.75;;;11.60;;
14294;SDS011;7231;59.370;18.016;2024-02-26T08:36:33;15.98;;;11.02;;
14294;SDS011;7231;59.370;18.016;2024-02-26T08:39:02;18.60;;;11.05;;
14294;SDS011;7231;59.370;18.016;2024-02-26T08:41:30;16.45;;;11.25;;
14294;SDS011;7231;59.370;18.016;2024-02-26T08:44:00;15.05;;;11.40;;
14294;SDS011;7231;59.370;18.016;2024-02-26T08:46:28;17.33;;;11.80;;
14294;SDS011;7231;59.370;18.016;2024-02-26T08:48:57;17.02;;;11.63;;
14294;SDS011;7231;59.370;18.016;2024-02-26T08:51:26;23.83;;;12.07;;
14294;SDS011;7231;59.370;18.016;2024-02-26T08:53:55;17.75;;;11.23;;
14294;SDS011;7231;59.370;18.016;2024-02-26T08:56:24;16.98;;;10.82;;
14294;SDS011;7231;59.370;18.016;2024-02-26T08:58:56;20.37;;;11.40;;
14294;SDS011;7231;59.370;18.016;2024-02-26T09:01:32;20.45;;;12.02;;
14294;SDS011;7231;59.370;18.016;2024-02-26T09:04:01;16.30;;;10.80;;
14294;SDS011;7231;59.370;18.016;2024-02-26T09:06:31;16.08;;;10.68;;
14294;SDS011;7231;59.370;18.016;2024-02-26T09:08:59;15.85;;;11.13;;
14294;SDS011;7231;59.370;18.016;2024-02-26T09:11:28;17.42;;;11.02;;
14294;SDS011;7231;59.370;18.016;2024-02-26T09:13:56;15.90;;;10.45;;
14294;SDS011;7231;59.370;18.016;2024-02-26T09:16:24;15.95;;;10.90;;
14294;SDS011;7231;59.370;18.016;2024-02-26T09:18:54;17.25;;;11.55;;
14294;SDS011;7231;59.370;18.016;2024-02-26T09:21:22;15.15;;;11.50;;
14294;SDS011;7231;59.370;18.016;2024-02-26T09:23:51;16.08;;;11.10;;
14294;SDS011;7231;59.370;18.016;2024-02-26T09:26:20;15.55;;;11.57;;
14294;SDS011;7231;59.370;18.016;2024-02-26T09:28:48;16.13;;;11.18;;
14294;SDS011;7231;59.370;18.016;2024-02-26T09:31:17;18.25;;;11.32;;
14294;SDS011;7231;59.370;18.016;2024-02-26T09:33:46;18.63;;;11.82;;
14294;SDS011;7231;59.370;18.016;2024-02-26T09:36:15;18.63;;;10.98;;
14294;SDS011;7231;59.370;18.016;2024-02-26T09:38:43;18.52;;;11.30;;
14294;SDS011;7231;59.370;18.016;2024-02-26T09:41:26;20.70;;;11.88;;
14294;SDS011;7231;59.370;18.016;2024-02-26T09:43:56;15.38;;;9.93;;
14294;SDS011;7231;59.370;18.016;2024-02-26T09:46:26;17.33;;;9.98;;
14294;SDS011;7231;59.370;18.016;2024-02-26T09:48:54;15.13;;;9.70;;
14294;SDS011;7231;59.370;18.016;2024-02-26T09:51:24;16.38;;;9.75;;
14294;SDS011;7231;59.370;18.016;2024-02-26T09:53:53;14.77;;;10.20;;
14294;SDS011;7231;59.370;18.016;2024-02-26T09:56:22;14.77;;;9.70;;
14294;SDS011;7231;59.370;18.016;2024-02-26T09:58:51;15.50;;;10.48;;
14294;SDS011;7231;59.370;18.016;2024-02-26T10:01:21;13.90;;;10.20;;
14294;SDS011;7231;59.370;18.016;2024-02-26T10:03:52;13.02;;;8.82;;
14294;SDS011;7231;59.370;18.016;2024-02-26T10:06:25;13.60;;;9.80;;
14294;SDS011;7231;59.370;18.016;2024-02-26T10:08:54;15.38;;;10.07;;
14294;SDS011;7231;59.370;18.016;2024-02-26T10:11:25;18.40;;;9.75;;
14294;SDS011;7231;59.370;18.016;2024-02-26T10:13:55;15.50;;;10.20;;
14294;SDS011;7231;59.370;18.016;2024-02-26T10:16:23;16.23;;;10.30;;
14294;SDS011;7231;59.370;18.016;2024-02-26T10:18:52;20.33;;;10.68;;
14294;SDS011;7231;59.370;18.016;2024-02-26T10:21:27;17.88;;;11.48;;
14294;SDS011;7231;59.370;18.016;2024-02-26T10:23:55;16.25;;;10.75;;
14294;SDS011;7231;59.370;18.016;2024-02-26T10:26:23;15.80;;;11.02;;
14294;SDS011;7231;59.370;18.016;2024-02-26T10:28:51;17.23;;;11.25;;
14294;SDS011;7231;59.370;18.016;2024-02-26T10:31:21;15.35;;;10.38;;
14294;SDS011;7231;59.370;18.016;2024-02-26T10:33:49;18.40;;;10.65;;
14294;SDS011;7231;59.370;18.016;2024-02-26T10:36:18;14.35;;;10.20;;
14294;SDS011;7231;59.370;18.016;2024-02-26T10:38:49;13.30;;;8.85;;
14294;SDS011;7231;59.370;18.016;2024-02-26T10:41:20;9.98;;;7.80;;
14294;SDS011;7231;59.370;18.016;2024-02-26T10:43:50;11.20;;;8.30;;
14294;SDS011;7231;59.370;18.016;2024-02-26T10:46:19;9.18;;;7.55;;
14294;SDS011;7231;59.370;18.016;2024-02-26T10:48:49;10.98;;;7.57;;
14294;SDS011;7231;59.370;18.016;2024-02-26T10:51:18;10.23;;;8.15;;
14294;SDS011;7231;59.370;18.016;2024-02-26T10:53:51;10.43;;;8.60;;
14294;SDS011;7231;59.370;18.016;2024-02-26T10:56:27;10.60;;;8.70;;
14294;SDS011;7231;59.370;18.016;2024-02-26T10:58:57;10.70;;;8.52;;
14294;SDS011;7231;59.370;18.016;2024-02-26T11:01:26;13.18;;;9.45;;
14294;SDS011;7231;59.370;18.016;2024-02-26T11:03:56;11.60;;;9.20;;
14294;SDS011;7231;59.370;18.016;2024-02-26T11:06:25;12.95;;;9.55;;
14294;SDS011;7231;59.370;18.016;2024-02-26T11:08:55;13.45;;;9.60;;
14294;SDS011;7231;59.370;18.016;2024-02-26T11:11:26;10.23;;;8.75;;
14294;SDS011;7231;59.370;18.016;2024-02-26T11:13:55;10.45;;;9.10;;
14294;SDS011;7231;59.370;18.016;2024-02-26T11:16:24;11.85;;;9.20;;
14294;SDS011;7231;59.370;18.016;2024-02-26T11:18:53;10.35;;;8.20;;
14294;SDS011;7231;59.370;18.016;2024-02-26T11:21:23;10.35;;;8.57;;
14294;SDS011;7231;59.370;18.016;2024-02-26T11:23:57;12.15;;;9.05;;
14294;SDS011;7231;59.370;18.016;2024-02-26T11:26:26;11.00;;;9.25;;
14294;SDS011;7231;59.370;18.016;2024-02-26T11:28:55;11.20;;;8.85;;
14294;SDS011;7231;59.370;18.016;2024-02-26T11:31:24;11.27;;;8.27;;
14294;SDS011;7231;59.370;18.016;2024-02-26T11:33:54;10.88;;;8.80;;
14294;SDS011;7231;59.370;18.016;2024-02-26T11:36:24;11.30;;;9.45;;
14294;SDS011;7231;59.370;18.016;2024-02-26T11:38:52;13.00;;;10.52;;
14294;SDS011;7231;59.370;18.016;2024-02-26T11:41:23;14.63;;;10.60;;
14294;SDS011;7231;59.370;18.016;2024-02-26T11:43:52;15.32;;;11.20;;
14294;SDS011;7231;59.370;18.016;2024-02-26T11:46:24;13.73;;;10.65;;
14294;SDS011;7231;59.370;18.016;2024-02-26T11:48:54;11.10;;;9.10;;
14294;SDS011;7231;59.370;18.016;2024-02-26T11:51:25;13.77;;;9.98;;
14294;SDS011;7231;59.370;18.016;2024-02-26T11:53:54;12.88;;;10.05;;
14294;SDS011;7231;59.370;18.016;2024-02-26T11:56:26;13.55;;;10.00;;
14294;SDS011;7231;59.370;18.016;2024-02-26T11:59:01;14.57;;;11.02;;
14294;SDS011;7231;59.370;18.016;2024-02-26T12:01:37;13.85;;;10.70;;
14294;SDS011;7231;59.370;18.016;2024-02-26T12:04:15;15.65;;;10.20;;
14294;SDS011;7231;59.370;18.016;2024-02-26T12:06:46;13.73;;;11.10;;
14294;SDS011;7231;59.370;18.016;2024-02-26T12:09:30;12.52;;;10.35;;
14294;SDS011;7231;59.370;18.016;2024-02-26T12:12:00;14.50;;;11.30;;
14294;SDS011;7231;59.370;18.016;2024-02-26T12:14:29;12.88;;;10.13;;
14294;SDS011;7231;59.370;18.016;2024-02-26T12:17:00;13.18;;;10.93;;
14294;SDS011;7231;59.370;18.016;2024-02-26T12:19:29;13.13;;;10.70;;
14294;SDS011;7231;59.370;18.016;2024-02-26T12:21:59;13.30;;;11.00;;
14294;SDS011;7231;59.370;18.016;2024-02-26T12:24:27;18.98;;;11.77;;
14294;SDS011;7231;59.370;18.016;2024-02-26T12:26:55;14.68;;;11.75;;
14294;SDS011;7231;59.370;18.016;2024-02-26T12:29:26;13.23;;;11.10;;
14294;SDS011;7231;59.370;18.016;2024-02-26T12:31:54;13.57;;;11.43;;
14294;SDS011;7231;59.370;18.016;2024-02-26T12:34:22;14.43;;;11.40;;
14294;SDS011;7231;59.370;18.016;2024-02-26T12:36:51;15.75;;;12.00;;
14294;SDS011;7231;59.370;18.016;2024-02-26T12:39:20;12.38;;;11.07;;
14294;SDS011;7231;59.370;18.016;2024-02-26T12:41:48;13.00;;;11.05;;
14294;SDS011;7231;59.370;18.016;2024-02-26T12:44:17;16.45;;;12.23;;
14294;SDS011;7231;59.370;18.016;2024-02-26T12:46:46;15.45;;;11.60;;
14294;SDS011;7231;59.370;18.016;2024-02-26T12:49:14;14.98;;;12.15;;
14294;SDS011;7231;59.370;18.016;2024-02-26T12:51:44;17.73;;;12.63;;
14294;SDS011;7231;59.370;18.016;2024-02-26T12:54:13;14.80;;;11.55;;
14294;SDS011;7231;59.370;18.016;2024-02-26T12:56:42;15.98;;;12.23;;
14294;SDS011;7231;59.370;18.016;2024-02-26T12:59:10;13.95;;;11.85;;
14294;SDS011;7231;59.370;18.016;2024-02-26T13:01:38;17.63;;;11.98;;
14294;SDS011;7231;59.370;18.016;2024-02-26T13:04:08;16.40;;;11.68;;
14294;SDS011;7231;59.370;18.016;2024-02-26T13:06:37;15.45;;;11.60;;
14294;SDS011;7231;59.370;18.016;2024-02-26T13:09:05;15.80;;;11.38;;
14294;SDS011;7231;59.370;18.016;2024-02-26T13:11:34;15.65;;;11.55;;
14294;SDS011;7231;59.370;18.016;2024-02-26T13:14:02;16.88;;;11.57;;
14294;SDS011;7231;59.370;18.016;2024-02-26T13:16:34;15.27;;;10.88;;
14294;SDS011;7231;59.370;18.016;2024-02-26T13:19:09;15.68;;;10.60;;
14294;SDS011;7231;59.370;18.016;2024-02-26T13:21:37;14.15;;;10.88;;
14294;SDS011;7231;59.370;18.016;2024-02-26T13:24:06;14.57;;;10.70;;
14294;SDS011;7231;59.370;18.016;2024-02-26T13:26:34;12.82;;;10.57;;
14294;SDS011;7231;59.370;18.016;2024-02-26T13:29:02;14.68;;;10.38;;
14294;SDS011;7231;59.370;18.016;2024-02-26T13:31:31;13.40;;;10.25;;
14294;SDS011;7231;59.370;18.016;2024-02-26T13:33:59;12.02;;;9.52;;
14294;SDS011;7231;59.370;18.016;2024-02-26T13:36:29;12.82;;;9.48;;
14294;SDS011;7231;59.370;18.016;2024-02-26T13:38:57;12.00;;;9.90;;
14294;SDS011;7231;59.370;18.016;2024-02-26T13:41:26;10.07;;;8.90;;
14294;SDS011;7231;59.370;18.016;2024-02-26T13:43:54;11.30;;;9.55;;
14294;SDS011;7231;59.370;18.016;2024-02-26T13:46:24;10.93;;;9.02;;
14294;SDS011;7231;59.370;18.016;2024-02-26T13:48:53;10.90;;;8.55;;
14294;SDS011;7231;59.370;18.016;2024-02-26T13:51:21;11.55;;;9.00;;
14294;SDS011;7231;59.370;18.016;2024-02-26T13:53:51;13.65;;;9.55;;
14294;SDS011;7231;59.370;18.016;2024-02-26T13:56:19;10.48;;;9.18;;
14294;SDS011;7231;59.370;18.016;2024-02-26T13:58:47;14.55;;;10.50;;
14294;SDS011;7231;59.370;18.016;2024-02-26T14:01:16;12.70;;;10.25;;
14294;SDS011;7231;59.370;18.016;2024-02-26T14:03:44;12.80;;;9.75;;
14294;SDS011;7231;59.370;18.016;2024-02-26T14:06:12;15.45;;;10.48;;
14294;SDS011;7231;59.370;18.016;2024-02-26T14:08:41;11.98;;;9.50;;
14294;SDS011;7231;59.370;18.016;2024-02-26T14:11:10;14.27;;;10.88;;
14294;SDS011;7231;59.370;18.016;2024-02-26T14:13:39;13.18;;;10.15;;
14294;SDS011;7231;59.370;18.016;2024-02-26T14:16:10;12.90;;;10.05;;
14294;SDS011;7231;59.370;18.016;2024-02-26T14:18:40;13.38;;;10.57;;
14294;SDS011;7231;59.370;18.016;2024-02-26T14:21:11;11.82;;;9.90;;
14294;SDS011;7231;59.370;18.016;2024-02-26T14:23:39;15.45;;;10.15;;
14294;SDS011;7231;59.370;18.016;2024-02-26T14:26:09;13.77;;;10.52;;
14294;SDS011;7231;59.370;18.016;2024-02-26T14:28:38;14.30;;;11.02;;
14294;SDS011;7231;59.370;18.016;2024-02-26T14:31:07;12.25;;;9.88;;
14294;SDS011;7231;59.370;18.016;2024-02-26T14:33:37;12.60;;;10.18;;